sensor_id;sensor_type;location;lat;lon;timestamp;pressure;altitude;pressure_sealevel;temperature;humidity
70982;BME280;58640;51.320;9.456;2023-02-17T00:02:17;99846.69;;;5.81;96.28
70982;BME280;58640;51.320;9.456;2023-02-17T00:04:42;99858.13;;;5.83;96.92
70982;BME280;58640;51.320;9.456;2023-02-17T00:07:08;99852.38;;;5.87;96.41
70982;BME280;58640;51.320;9.456;2023-02-17T00:09:33;99851.28;;;5.90;96.22
70982;BME280;58640;51.320;9.456;2023-02-17T00:11:58;99854.84;;;5.79;97.04
70982;BME280;58640;51.320;9.456;2023-02-17T00:14:24;99847.84;;;5.78;97.19
70982;BME280;58640;51.320;9.456;2023-02-17T00:16:49;99846.91;;;5.89;96.71
70982;BME280;58640;51.320;9.456;2023-02-17T00:19:15;99851.50;;;5.77;97.61
70982;BME280;58640;51.320;9.456;2023-02-17T00:21:54;99844.66;;;5.84;97.58
70982;BME280;58640;51.320;9.456;2023-02-17T00:24:20;99838.63;;;5.92;96.93
70982;BME280;58640;51.320;9.456;2023-02-17T00:26:46;99837.53;;;5.94;97.15
70982;BME280;58640;51.320;9.456;2023-02-17T00:29:12;99838.44;;;5.84;98.33
70982;BME280;58640;51.320;9.456;2023-02-17T00:31:37;99839.56;;;5.81;98.87
70982;BME280;58640;51.320;9.456;2023-02-17T00:34:03;99832.16;;;5.85;99.20
70982;BME280;58640;51.320;9.456;2023-02-17T00:36:28;99844.09;;;5.90;99.28
70982;BME280;58640;51.320;9.456;2023-02-17T00:38:55;99846.91;;;5.89;99.23
70982;BME280;58640;51.320;9.456;2023-02-17T00:41:21;99847.91;;;5.88;99.75
70982;BME280;58640;51.320;9.456;2023-02-17T00:43:48;99844.25;;;5.98;99.22
70982;BME280;58640;51.320;9.456;2023-02-17T00:46:14;99843.09;;;5.82;100.00
70982;BME280;58640;51.320;9.456;2023-02-17T00:48:40;99856.78;;;5.98;99.67
70982;BME280;58640;51.320;9.456;2023-02-17T00:51:05;99842.03;;;6.04;99.03
70982;BME280;58640;51.320;9.456;2023-02-17T00:53:31;99851.88;;;6.03;99.65
70982;BME280;58640;51.320;9.456;2023-02-17T00:55:56;99845.13;;;6.09;99.37
70982;BME280;58640;51.320;9.456;2023-02-17T00:58:22;99837.53;;;6.04;99.69
70982;BME280;58640;51.320;9.456;2023-02-17T01:00:47;99839.66;;;6.10;99.64
70982;BME280;58640;51.320;9.456;2023-02-17T01:03:13;99841.19;;;6.03;100.00
70982;BME280;58640;51.320;9.456;2023-02-17T01:05:42;99838.22;;;5.97;100.00
70982;BME280;58640;51.320;9.456;2023-02-17T01:08:08;99834.00;;;6.04;100.00
70982;BME280;58640;51.320;9.456;2023-02-17T01:10:40;99838.78;;;6.10;100.00
70982;BME280;58640;51.320;9.456;2023-02-17T01:13:07;99836.41;;;6.07;100.00
70982;BME280;58640;51.320;9.456;2023-02-17T01:15:38;99827.72;;;6.05;100.00
70982;BME280;58640;51.320;9.456;2023-02-17T01:18:03;99820.97;;;6.10;100.00
70982;BME280;58640;51.320;9.456;2023-02-17T01:20:29;99819.72;;;6.14;100.00
70982;BME280;58640;51.320;9.456;2023-02-17T01:22:54;99815.34;;;6.13;100.00
70982;BME280;58640;51.320;9.456;2023-02-17T01:25:20;99810.28;;;6.10;100.00
70982;BME280;58640;51.320;9.456;2023-02-17T01:27:45;99813.22;;;6.07;100.00
70982;BME280;58640;51.320;9.456;2023-02-17T01:30:11;99807.19;;;6.15;100.00
70982;BME280;58640;51.320;9.456;2023-02-17T01:32:37;99805.66;;;6.12;100.00
70982;BME280;58640;51.320;9.456;2023-02-17T01:35:03;99800.47;;;6.20;100.00
70982;BME280;58640;51.320;9.456;2023-02-17T01:37:31;99791.44;;;6.21;100.00
70982;BME280;58640;51.320;9.456;2023-02-17T01:39:56;99786.41;;;6.37;100.00
70982;BME280;58640;51.320;9.456;2023-02-17T01:42:21;99790.50;;;6.41;100.00
70982;BME280;58640;51.320;9.456;2023-02-17T01:47:50;99785.81;;;6.15;100.00
70982;BME280;58640;51.320;9.456;2023-02-17T01:50:21;99783.16;;;6.24;100.00
70982;BME280;58640;51.320;9.456;2023-02-17T01:52:47;99792.59;;;6.28;100.00
70982;BME280;58640;51.320;9.456;2023-02-17T01:55:16;99777.38;;;6.29;100.00
70982;BME280;58640;51.320;9.456;2023-02-17T01:57:43;99773.47;;;6.23;100.00
70982;BME280;58640;51.320;9.456;2023-02-17T02:00:11;99773.47;;;6.33;100.00
70982;BME280;58640;51.320;9.456;2023-02-17T02:02:38;99772.19;;;6.37;100.00
70982;BME280;58640;51.320;9.456;2023-02-17T02:05:04;99772.75;;;6.31;100.00
70982;BME280;58640;51.320;9.456;2023-02-17T02:07:34;99759.81;;;6.36;100.00
70982;BME280;58640;51.320;9.456;2023-02-17T02:10:02;99757.88;;;6.28;100.00
70982;BME280;58640;51.320;9.456;2023-02-17T02:12:33;99753.63;;;6.35;100.00
70982;BME280;58640;51.320;9.456;2023-02-17T02:15:06;99749.28;;;6.34;100.00
70982;BME280;58640;51.320;9.456;2023-02-17T02:17:59;99741.13;;;6.26;100.00
70982;BME280;58640;51.320;9.456;2023-02-17T02:34:52;99735.66;;;6.18;100.00
70982;BME280;58640;51.320;9.456;2023-02-17T02:37:29;99738.75;;;6.23;100.00
70982;BME280;58640;51.320;9.456;2023-02-17T02:39:59;99722.28;;;6.18;100.00
70982;BME280;58640;51.320;9.456;2023-02-17T02:42:26;99724.97;;;6.28;100.00
70982;BME280;58640;51.320;9.456;2023-02-17T02:44:52;99716.94;;;6.37;100.00
70982;BME280;58640;51.320;9.456;2023-02-17T02:47:41;99719.34;;;6.31;100.00
70982;BME280;58640;51.320;9.456;2023-02-17T02:50:08;99714.84;;;6.31;100.00
70982;BME280;58640;51.320;9.456;2023-02-17T02:52:53;99716.91;;;6.47;100.00
70982;BME280;58640;51.320;9.456;2023-02-17T02:55:36;99717.63;;;6.49;100.00
70982;BME280;58640;51.320;9.456;2023-02-17T02:58:16;99712.44;;;6.38;100.00
70982;BME280;58640;51.320;9.456;2023-02-17T03:00:53;99708.22;;;6.35;100.00
70982;BME280;58640;51.320;9.456;2023-02-17T03:03:40;99694.03;;;6.35;100.00
70982;BME280;58640;51.320;9.456;2023-02-17T03:06:18;99693.19;;;6.34;100.00
70982;BME280;58640;51.320;9.456;2023-02-17T03:08:53;99702.19;;;6.43;100.00
70982;BME280;58640;51.320;9.456;2023-02-17T03:11:23;99684.31;;;6.34;100.00
70982;BME280;58640;51.320;9.456;2023-02-17T03:14:12;99693.91;;;6.27;100.00
70982;BME280;58640;51.320;9.456;2023-02-17T03:16:40;99686.69;;;6.46;100.00
70982;BME280;58640;51.320;9.456;2023-02-17T03:19:08;99697.66;;;6.43;100.00
70982;BME280;58640;51.320;9.456;2023-02-17T03:21:56;99681.34;;;6.46;100.00
70982;BME280;58640;51.320;9.456;2023-02-17T03:24:23;99690.78;;;6.41;100.00
70982;BME280;58640;51.320;9.456;2023-02-17T03:26:49;99687.56;;;6.37;100.00
70982;BME280;58640;51.320;9.456;2023-02-17T03:29:14;99684.31;;;6.34;100.00
70982;BME280;58640;51.320;9.456;2023-02-17T03:31:40;99684.88;;;6.37;100.00
70982;BME280;58640;51.320;9.456;2023-02-17T03:34:05;99686.31;;;6.32;100.00
70982;BME280;58640;51.320;9.456;2023-02-17T03:36:31;99680.38;;;6.47;100.00
70982;BME280;58640;51.320;9.456;2023-02-17T03:38:56;99685.00;;;6.45;100.00
70982;BME280;58640;51.320;9.456;2023-02-17T03:41:22;99677.25;;;6.52;100.00
70982;BME280;58640;51.320;9.456;2023-02-17T03:43:47;99670.34;;;6.59;100.00
70982;BME280;58640;51.320;9.456;2023-02-17T03:46:14;99672.91;;;6.51;100.00
70982;BME280;58640;51.320;9.456;2023-02-17T03:48:40;99677.56;;;6.49;100.00
70982;BME280;58640;51.320;9.456;2023-02-17T03:51:14;99676.97;;;6.55;100.00
70982;BME280;58640;51.320;9.456;2023-02-17T03:53:41;99683.59;;;6.51;100.00
70982;BME280;58640;51.320;9.456;2023-02-17T03:56:07;99680.63;;;6.54;100.00
70982;BME280;58640;51.320;9.456;2023-02-17T03:58:33;99681.75;;;6.51;100.00
70982;BME280;58640;51.320;9.456;2023-02-17T04:00:58;99683.19;;;6.46;100.00
70982;BME280;58640;51.320;9.456;2023-02-17T04:03:23;99679.38;;;6.48;100.00
70982;BME280;58640;51.320;9.456;2023-02-17T04:05:49;99668.94;;;6.55;100.00
70982;BME280;58640;51.320;9.456;2023-02-17T04:08:14;99666.41;;;6.53;100.00
70982;BME280;58640;51.320;9.456;2023-02-17T04:10:40;99663.03;;;6.51;100.00
70982;BME280;58640;51.320;9.456;2023-02-17T04:13:05;99667.41;;;6.52;100.00
70982;BME280;58640;51.320;9.456;2023-02-17T04:15:30;99664.00;;;6.60;100.00
70982;BME280;58640;51.320;9.456;2023-02-17T04:17:56;99653.34;;;6.50;100.00
70982;BME280;58640;51.320;9.456;2023-02-17T04:20:21;99657.41;;;6.54;100.00
70982;BME280;58640;51.320;9.456;2023-02-17T04:22:46;99657.38;;;6.64;100.00
70982;BME280;58640;51.320;9.456;2023-02-17T04:25:12;99651.72;;;6.76;100.00
70982;BME280;58640;51.320;9.456;2023-02-17T04:27:37;99645.97;;;6.71;100.00
70982;BME280;58640;51.320;9.456;2023-02-17T04:30:03;99635.19;;;6.63;100.00
70982;BME280;58640;51.320;9.456;2023-02-17T04:32:29;99628.25;;;6.70;100.00
70982;BME280;58640;51.320;9.456;2023-02-17T04:34:54;99624.28;;;6.74;100.00
70982;BME280;58640;51.320;9.456;2023-02-17T04:37:20;99621.06;;;6.71;100.00
70982;BME280;58640;51.320;9.456;2023-02-17T04:39:45;99627.41;;;6.70;100.00
70982;BME280;58640;51.320;9.456;2023-02-17T04:42:10;99631.66;;;6.63;100.00
70982;BME280;58640;51.320;9.456;2023-02-17T04:44:36;99631.78;;;6.61;100.00
70982;BME280;58640;51.320;9.456;2023-02-17T04:47:01;99635.59;;;6.68;100.00
70982;BME280;58640;51.320;9.456;2023-02-17T04:49:26;99633.91;;;6.94;100.00
70982;BME280;58640;51.320;9.456;2023-02-17T04:51:52;99625.25;;;6.83;100.00
70982;BME280;58640;51.320;9.456;2023-02-17T04:54:17;99632.94;;;6.95;100.00
70982;BME280;58640;51.320;9.456;2023-02-17T04:56:42;99630.25;;;6.95;100.00
70982;BME280;58640;51.320;9.456;2023-02-17T04:59:08;99639.03;;;6.78;100.00
70982;BME280;58640;51.320;9.456;2023-02-17T05:01:33;99635.81;;;6.84;100.00
70982;BME280;58640;51.320;9.456;2023-02-17T05:03:59;99639.25;;;6.94;100.00
70982;BME280;58640;51.320;9.456;2023-02-17T05:06:24;99636.97;;;6.99;100.00
70982;BME280;58640;51.320;9.456;2023-02-17T05:08:49;99639.34;;;7.02;100.00
70982;BME280;58640;51.320;9.456;2023-02-17T05:11:15;99634.66;;;6.87;100.00
70982;BME280;58640;51.320;9.456;2023-02-17T05:13:40;99625.38;;;7.08;100.00
70982;BME280;58640;51.320;9.456;2023-02-17T05:16:05;99628.06;;;7.08;100.00
70982;BME280;58640;51.320;9.456;2023-02-17T05:18:31;99635.56;;;7.05;100.00
70982;BME280;58640;51.320;9.456;2023-02-17T05:20:56;99634.84;;;7.03;100.00
70982;BME280;58640;51.320;9.456;2023-02-17T05:23:22;99627.19;;;6.90;100.00
70982;BME280;58640;51.320;9.456;2023-02-17T05:25:47;99634.16;;;7.01;100.00
70982;BME280;58640;51.320;9.456;2023-02-17T05:28:13;99632.94;;;6.95;100.00
70982;BME280;58640;51.320;9.456;2023-02-17T05:30:38;99631.56;;;7.09;100.00
70982;BME280;58640;51.320;9.456;2023-02-17T05:33:03;99638.47;;;7.11;100.00
70982;BME280;58640;51.320;9.456;2023-02-17T05:35:29;99638.09;;;7.06;100.00
70982;BME280;58640;51.320;9.456;2023-02-17T05:37:55;99632.44;;;7.09;100.00
70982;BME280;58640;51.320;9.456;2023-02-17T05:40:20;99632.88;;;7.05;100.00
70982;BME280;58640;51.320;9.456;2023-02-17T05:42:46;99630.66;;;7.27;100.00
70982;BME280;58640;51.320;9.456;2023-02-17T05:45:11;99624.81;;;7.14;100.00
70982;BME280;58640;51.320;9.456;2023-02-17T05:47:36;99624.41;;;7.09;100.00
70982;BME280;58640;51.320;9.456;2023-02-17T05:50:03;99624.09;;;7.12;100.00
70982;BME280;58640;51.320;9.456;2023-02-17T05:52:28;99626.69;;;7.04;100.00
70982;BME280;58640;51.320;9.456;2023-02-17T05:54:54;99614.56;;;7.10;100.00
70982;BME280;58640;51.320;9.456;2023-02-17T05:57:19;99611.59;;;7.13;100.00
70982;BME280;58640;51.320;9.456;2023-02-17T05:59:44;99601.03;;;7.11;100.00
70982;BME280;58640;51.320;9.456;2023-02-17T06:02:10;99593.59;;;7.05;100.00
70982;BME280;58640;51.320;9.456;2023-02-17T06:04:35;99594.69;;;7.12;100.00
70982;BME280;58640;51.320;9.456;2023-02-17T06:07:00;99596.75;;;7.18;100.00
70982;BME280;58640;51.320;9.456;2023-02-17T06:09:26;99601.56;;;7.15;100.00
70982;BME280;58640;51.320;9.456;2023-02-17T06:11:51;99592.09;;;7.20;100.00
70982;BME280;58640;51.320;9.456;2023-02-17T06:14:17;99586.22;;;7.34;100.00
70982;BME280;58640;51.320;9.456;2023-02-17T06:16:42;99588.81;;;7.26;100.00
70982;BME280;58640;51.320;9.456;2023-02-17T06:19:08;99572.22;;;7.23;100.00
70982;BME280;58640;51.320;9.456;2023-02-17T06:21:33;99573.00;;;7.33;100.00
70982;BME280;58640;51.320;9.456;2023-02-17T06:23:58;99583.25;;;7.37;100.00
70982;BME280;58640;51.320;9.456;2023-02-17T06:26:24;99595.09;;;7.35;100.00
70982;BME280;58640;51.320;9.456;2023-02-17T06:28:49;99600.91;;;7.30;100.00
70982;BME280;58640;51.320;9.456;2023-02-17T06:31:14;99584.63;;;7.41;100.00
70982;BME280;58640;51.320;9.456;2023-02-17T06:33:40;99591.72;;;7.33;100.00
70982;BME280;58640;51.320;9.456;2023-02-17T06:36:05;99592.44;;;7.35;100.00
70982;BME280;58640;51.320;9.456;2023-02-17T06:38:31;99608.25;;;7.46;100.00
70982;BME280;58640;51.320;9.456;2023-02-17T06:40:56;99612.00;;;7.35;100.00
70982;BME280;58640;51.320;9.456;2023-02-17T06:43:22;99615.66;;;7.34;100.00
70982;BME280;58640;51.320;9.456;2023-02-17T06:45:47;99598.00;;;7.41;100.00
70982;BME280;58640;51.320;9.456;2023-02-17T06:48:12;99594.41;;;7.51;100.00
70982;BME280;58640;51.320;9.456;2023-02-17T06:50:38;99591.19;;;7.47;100.00
70982;BME280;58640;51.320;9.456;2023-02-17T06:53:04;99591.59;;;7.52;100.00
70982;BME280;58640;51.320;9.456;2023-02-17T06:55:29;99581.88;;;7.51;100.00
70982;BME280;58640;51.320;9.456;2023-02-17T06:57:54;99582.44;;;7.55;100.00
70982;BME280;58640;51.320;9.456;2023-02-17T07:00:20;99563.16;;;7.51;100.00
70982;BME280;58640;51.320;9.456;2023-02-17T07:02:46;99558.47;;;7.71;100.00
70982;BME280;58640;51.320;9.456;2023-02-17T07:05:11;99573.94;;;7.59;100.00
70982;BME280;58640;51.320;9.456;2023-02-17T07:07:36;99581.25;;;7.57;100.00
70982;BME280;58640;51.320;9.456;2023-02-17T07:10:02;99576.38;;;7.70;100.00
70982;BME280;58640;51.320;9.456;2023-02-17T07:12:28;99574.16;;;7.66;100.00
70982;BME280;58640;51.320;9.456;2023-02-17T07:14:53;99566.19;;;7.74;100.00
70982;BME280;58640;51.320;9.456;2023-02-17T07:17:19;99563.06;;;7.78;100.00
70982;BME280;58640;51.320;9.456;2023-02-17T07:19:45;99563.44;;;7.83;100.00
70982;BME280;58640;51.320;9.456;2023-02-17T07:22:10;99565.25;;;7.83;100.00
70982;BME280;58640;51.320;9.456;2023-02-17T07:24:35;99551.50;;;7.78;100.00
70982;BME280;58640;51.320;9.456;2023-02-17T07:27:01;99549.94;;;7.93;100.00
70982;BME280;58640;51.320;9.456;2023-02-17T07:29:28;99549.56;;;7.88;100.00
70982;BME280;58640;51.320;9.456;2023-02-17T07:31:54;99542.56;;;7.95;100.00
70982;BME280;58640;51.320;9.456;2023-02-17T07:34:19;99548.91;;;8.11;100.00
70982;BME280;58640;51.320;9.456;2023-02-17T07:36:44;99552.78;;;8.17;100.00
70982;BME280;58640;51.320;9.456;2023-02-17T07:39:10;99552.09;;;8.32;100.00
70982;BME280;58640;51.320;9.456;2023-02-17T07:41:35;99544.84;;;8.25;100.00
70982;BME280;58640;51.320;9.456;2023-02-17T07:44:00;99568.28;;;8.23;100.00
70982;BME280;58640;51.320;9.456;2023-02-17T07:46:26;99558.47;;;8.39;100.00
70982;BME280;58640;51.320;9.456;2023-02-17T07:48:51;99559.53;;;8.46;100.00
70982;BME280;58640;51.320;9.456;2023-02-17T07:51:20;99561.59;;;8.60;100.00
70982;BME280;58640;51.320;9.456;2023-02-17T07:53:47;99560.59;;;8.53;100.00
70982;BME280;58640;51.320;9.456;2023-02-17T07:56:14;99559.91;;;8.51;100.00
70982;BME280;58640;51.320;9.456;2023-02-17T07:58:41;99552.28;;;8.72;100.00
70982;BME280;58640;51.320;9.456;2023-02-17T08:01:08;99542.84;;;8.60;100.00
70982;BME280;58640;51.320;9.456;2023-02-17T08:03:33;99542.06;;;8.76;100.00
70982;BME280;58640;51.320;9.456;2023-02-17T08:05:59;99542.66;;;8.62;100.00
70982;BME280;58640;51.320;9.456;2023-02-17T08:08:24;99538.34;;;8.69;100.00
70982;BME280;58640;51.320;9.456;2023-02-17T08:11:12;99539.56;;;8.82;100.00
70982;BME280;58640;51.320;9.456;2023-02-17T08:13:57;99541.84;;;8.61;100.00
70982;BME280;58640;51.320;9.456;2023-02-17T08:16:22;99538.34;;;8.69;100.00
70982;BME280;58640;51.320;9.456;2023-02-17T08:18:47;99527.34;;;8.80;100.00
70982;BME280;58640;51.320;9.456;2023-02-17T08:21:13;99528.84;;;8.82;100.00
70982;BME280;58640;51.320;9.456;2023-02-17T08:23:38;99532.38;;;8.83;100.00
70982;BME280;58640;51.320;9.456;2023-02-17T08:26:03;99526.63;;;8.70;100.00
70982;BME280;58640;51.320;9.456;2023-02-17T08:28:29;99526.31;;;8.81;100.00
70982;BME280;58640;51.320;9.456;2023-02-17T08:30:54;99523.63;;;8.81;100.00
70982;BME280;58640;51.320;9.456;2023-02-17T08:33:20;99531.81;;;8.71;100.00
70982;BME280;58640;51.320;9.456;2023-02-17T08:35:46;99534.38;;;8.81;100.00
70982;BME280;58640;51.320;9.456;2023-02-17T08:38:11;99518.03;;;9.08;99.81
70982;BME280;58640;51.320;9.456;2023-02-17T08:40:37;99505.44;;;9.09;99.57
70982;BME280;58640;51.320;9.456;2023-02-17T08:43:02;99509.00;;;9.09;99.02
70982;BME280;58640;51.320;9.456;2023-02-17T08:45:28;99512.03;;;9.14;99.14
70982;BME280;58640;51.320;9.456;2023-02-17T08:47:54;99512.16;;;9.21;98.46
70982;BME280;58640;51.320;9.456;2023-02-17T08:50:20;99515.19;;;9.18;98.89
70982;BME280;58640;51.320;9.456;2023-02-17T08:52:45;99510.34;;;9.37;97.90
70982;BME280;58640;51.320;9.456;2023-02-17T08:55:11;99502.31;;;9.37;97.52
70982;BME280;58640;51.320;9.456;2023-02-17T08:57:37;99494.44;;;9.44;97.92
70982;BME280;58640;51.320;9.456;2023-02-17T09:00:05;99498.94;;;9.35;97.52
70982;BME280;58640;51.320;9.456;2023-02-17T09:02:30;99491.06;;;9.50;97.31
70982;BME280;58640;51.320;9.456;2023-02-17T09:04:56;99491.75;;;9.52;96.62
70982;BME280;58640;51.320;9.456;2023-02-17T09:07:21;99508.53;;;9.54;96.10
70982;BME280;58640;51.320;9.456;2023-02-17T09:09:47;99500.47;;;9.62;96.09
70982;BME280;58640;51.320;9.456;2023-02-17T09:12:12;99502.66;;;9.74;95.41
70982;BME280;58640;51.320;9.456;2023-02-17T09:14:37;99500.13;;;9.73;95.39
70982;BME280;58640;51.320;9.456;2023-02-17T09:17:04;99506.31;;;9.73;94.90
70982;BME280;58640;51.320;9.456;2023-02-17T09:19:29;99503.34;;;9.76;94.99
70982;BME280;58640;51.320;9.456;2023-02-17T09:21:54;99501.63;;;9.75;95.48
70982;BME280;58640;51.320;9.456;2023-02-17T09:24:20;99510.53;;;9.84;94.73
70982;BME280;58640;51.320;9.456;2023-02-17T09:26:45;99502.63;;;9.90;94.05
70982;BME280;58640;51.320;9.456;2023-02-17T09:29:11;99499.78;;;10.00;93.78
70982;BME280;58640;51.320;9.456;2023-02-17T09:31:36;99509.50;;;9.93;93.98
70982;BME280;58640;51.320;9.456;2023-02-17T09:34:03;99490.88;;;10.07;94.04
70982;BME280;58640;51.320;9.456;2023-02-17T09:36:31;99496.41;;;10.22;93.20
70982;BME280;58640;51.320;9.456;2023-02-17T09:38:57;99491.03;;;10.22;92.64
70982;BME280;58640;51.320;9.456;2023-02-17T09:44:01;99481.25;;;10.37;91.86
70982;BME280;58640;51.320;9.456;2023-02-17T09:46:30;99479.06;;;10.71;90.43
70982;BME280;58640;51.320;9.456;2023-02-17T09:49:03;99483.16;;;10.59;89.89
70982;BME280;58640;51.320;9.456;2023-02-17T09:51:38;99487.81;;;10.73;89.44
70982;BME280;58640;51.320;9.456;2023-02-17T09:56:58;99487.50;;;10.99;88.82
70982;BME280;58640;51.320;9.456;2023-02-17T09:59:36;99487.53;;;11.21;87.20
70982;BME280;58640;51.320;9.456;2023-02-17T10:02:13;99481.25;;;11.29;86.80
70982;BME280;58640;51.320;9.456;2023-02-17T10:04:41;99478.97;;;11.40;85.86
70982;BME280;58640;51.320;9.456;2023-02-17T10:07:23;99484.59;;;11.31;86.05
70982;BME280;58640;51.320;9.456;2023-02-17T10:09:54;99471.63;;;11.34;85.60
70982;BME280;58640;51.320;9.456;2023-02-17T10:12:25;99493.06;;;11.42;86.30
70982;BME280;58640;51.320;9.456;2023-02-17T10:14:57;99471.44;;;11.36;85.94
70982;BME280;58640;51.320;9.456;2023-02-17T10:20:22;99477.13;;;11.18;86.74
70982;BME280;58640;51.320;9.456;2023-02-17T10:22:54;99474.94;;;11.36;86.34
70982;BME280;58640;51.320;9.456;2023-02-17T10:31:04;99466.25;;;11.49;86.04
70982;BME280;58640;51.320;9.456;2023-02-17T10:36:24;99478.50;;;11.37;87.03
70982;BME280;58640;51.320;9.456;2023-02-17T10:39:14;99493.03;;;11.28;87.73
70982;BME280;58640;51.320;9.456;2023-02-17T10:41:40;99483.16;;;11.43;86.95
70982;BME280;58640;51.320;9.456;2023-02-17T10:44:19;99506.97;;;11.31;87.60
70982;BME280;58640;51.320;9.456;2023-02-17T10:46:48;99509.38;;;11.26;88.39
70982;BME280;58640;51.320;9.456;2023-02-17T10:49:23;99510.13;;;11.35;88.22
70982;BME280;58640;51.320;9.456;2023-02-17T10:51:50;99505.97;;;11.32;88.14
70982;BME280;58640;51.320;9.456;2023-02-17T10:54:24;99500.88;;;11.37;88.24
70982;BME280;58640;51.320;9.456;2023-02-17T10:56:53;99503.16;;;11.48;88.06
70982;BME280;58640;51.320;9.456;2023-02-17T10:59:25;99509.91;;;11.44;88.03
70982;BME280;58640;51.320;9.456;2023-02-17T11:01:55;99505.84;;;11.48;87.85
70982;BME280;58640;51.320;9.456;2023-02-17T11:04:22;99496.47;;;11.67;87.52
70982;BME280;58640;51.320;9.456;2023-02-17T11:06:49;99499.38;;;11.80;86.49
70982;BME280;58640;51.320;9.456;2023-02-17T11:09:23;99486.22;;;11.85;86.11
70982;BME280;58640;51.320;9.456;2023-02-17T11:14:29;99482.41;;;11.94;85.32
70982;BME280;58640;51.320;9.456;2023-02-17T11:16:58;99486.78;;;12.10;84.59
70982;BME280;58640;51.320;9.456;2023-02-17T11:19:29;99481.97;;;12.20;83.58
70982;BME280;58640;51.320;9.456;2023-02-17T11:21:58;99478.53;;;12.26;84.09
70982;BME280;58640;51.320;9.456;2023-02-17T11:24:25;99466.84;;;12.33;82.81
70982;BME280;58640;51.320;9.456;2023-02-17T11:27:10;99459.75;;;12.47;82.56
70982;BME280;58640;51.320;9.456;2023-02-17T11:29:36;99450.72;;;12.40;82.21
70982;BME280;58640;51.320;9.456;2023-02-17T11:32:10;99457.69;;;12.49;82.31
70982;BME280;58640;51.320;9.456;2023-02-17T11:34:42;99433.44;;;12.49;82.11
70982;BME280;58640;51.320;9.456;2023-02-17T11:39:43;99420.97;;;12.33;81.83
70982;BME280;58640;51.320;9.456;2023-02-17T11:42:25;99432.75;;;12.47;81.68
70982;BME280;58640;51.320;9.456;2023-02-17T11:44:52;99415.91;;;12.45;81.27
70982;BME280;58640;51.320;9.456;2023-02-17T12:00:18;99422.91;;;12.89;80.08
70982;BME280;58640;51.320;9.456;2023-02-17T12:05:50;99422.31;;;13.08;78.98
70982;BME280;58640;51.320;9.456;2023-02-17T12:08:24;99413.47;;;13.14;78.60
70982;BME280;58640;51.320;9.456;2023-02-17T12:16:42;99405.88;;;13.03;79.26
70982;BME280;58640;51.320;9.456;2023-02-17T12:19:44;99399.31;;;12.98;79.21
70982;BME280;58640;51.320;9.456;2023-02-17T12:22:44;99406.69;;;13.04;79.27
70982;BME280;58640;51.320;9.456;2023-02-17T12:25:32;99393.25;;;13.10;79.01
70982;BME280;58640;51.320;9.456;2023-02-17T12:33:54;99384.69;;;13.07;79.18
70982;BME280;58640;51.320;9.456;2023-02-17T12:36:22;99368.16;;;13.16;78.64
70982;BME280;58640;51.320;9.456;2023-02-17T12:38:56;99359.78;;;13.33;77.89
70982;BME280;58640;51.320;9.456;2023-02-17T12:44:19;99353.16;;;13.56;77.51
70982;BME280;58640;51.320;9.456;2023-02-17T12:46:50;99347.19;;;13.67;76.51
70982;BME280;58640;51.320;9.456;2023-02-17T12:49:31;99346.06;;;13.55;77.25
70982;BME280;58640;51.320;9.456;2023-02-17T12:52:05;99328.69;;;13.64;76.21
70982;BME280;58640;51.320;9.456;2023-02-17T12:54:40;99330.31;;;13.93;75.72
70982;BME280;58640;51.320;9.456;2023-02-17T12:59:42;99319.31;;;14.01;75.28
70982;BME280;58640;51.320;9.456;2023-02-17T13:02:17;99319.25;;;13.88;74.87
70982;BME280;58640;51.320;9.456;2023-02-17T13:04:44;99318.81;;;13.84;75.56
70982;BME280;58640;51.320;9.456;2023-02-17T13:09:45;99306.59;;;13.95;74.56
70982;BME280;58640;51.320;9.456;2023-02-17T13:17:31;99315.00;;;14.13;73.03
70982;BME280;58640;51.320;9.456;2023-02-17T13:22:38;99319.00;;;14.23;72.32
70982;BME280;58640;51.320;9.456;2023-02-17T13:25:04;99300.94;;;14.30;71.58
70982;BME280;58640;51.320;9.456;2023-02-17T13:27:32;99293.78;;;14.16;71.84
70982;BME280;58640;51.320;9.456;2023-02-17T13:32:59;99312.50;;;14.11;71.87
70982;BME280;58640;51.320;9.456;2023-02-17T13:37:50;99313.38;;;14.18;71.13
70982;BME280;58640;51.320;9.456;2023-02-17T13:45:23;99318.16;;;14.16;70.92
70982;BME280;58640;51.320;9.456;2023-02-17T13:47:51;99330.81;;;14.16;70.46
70982;BME280;58640;51.320;9.456;2023-02-17T13:50:34;99335.34;;;14.43;69.60
70982;BME280;58640;51.320;9.456;2023-02-17T13:53:02;99333.03;;;14.40;69.62
70982;BME280;58640;51.320;9.456;2023-02-17T13:55:28;99325.91;;;14.26;70.12
70982;BME280;58640;51.320;9.456;2023-02-17T13:57:55;99328.75;;;14.18;69.91
70982;BME280;58640;51.320;9.456;2023-02-17T14:00:24;99331.53;;;14.24;70.14
70982;BME280;58640;51.320;9.456;2023-02-17T14:02:55;99325.19;;;14.11;70.56
70982;BME280;58640;51.320;9.456;2023-02-17T14:08:03;99321.25;;;14.13;70.48
70982;BME280;58640;51.320;9.456;2023-02-17T14:10:30;99317.91;;;14.11;70.00
70982;BME280;58640;51.320;9.456;2023-02-17T14:12:55;99315.16;;;14.05;70.50
70982;BME280;58640;51.320;9.456;2023-02-17T14:15:25;99338.25;;;14.01;70.64
70982;BME280;58640;51.320;9.456;2023-02-17T14:17:51;99337.78;;;13.91;70.87
70982;BME280;58640;51.320;9.456;2023-02-17T14:20:42;99349.06;;;14.01;70.79
70982;BME280;58640;51.320;9.456;2023-02-17T14:23:13;99347.78;;;13.97;71.29
70982;BME280;58640;51.320;9.456;2023-02-17T14:25:43;99362.72;;;13.86;71.47
70982;BME280;58640;51.320;9.456;2023-02-17T14:28:23;99370.88;;;13.93;71.05
70982;BME280;58640;51.320;9.456;2023-02-17T14:30:48;99365.66;;;13.91;71.65
70982;BME280;58640;51.320;9.456;2023-02-17T14:36:00;99381.13;;;14.04;71.69
70982;BME280;58640;51.320;9.456;2023-02-17T14:38:36;99389.63;;;14.01;71.51
70982;BME280;58640;51.320;9.456;2023-02-17T14:41:04;99379.63;;;14.01;71.89
70982;BME280;58640;51.320;9.456;2023-02-17T14:43:30;99389.19;;;13.97;71.80
70982;BME280;58640;51.320;9.456;2023-02-17T14:45:55;99387.53;;;14.03;72.07
70982;BME280;58640;51.320;9.456;2023-02-17T14:48:21;99385.19;;;13.93;72.57